This is the latest recevied weather packets stored in our database for station/object KE9ADS. If no packets are shown the sender has not sent any weather packets the latest 1 day(s).
| Time | Temp. | Humidity | Pressure | Rain* | Wind** | Luminosity | Snow |
|---|---|---|---|---|---|---|---|
| 1777979930 | 7.78° C | 76% | 1013.3 hPa | 0 mm | 0 m/s | 1 W/m² | - |
| 1777979327 | 7.78° C | 72% | 1013.2 hPa | 0 mm | 0 m/s | 0 W/m² | - |
| 1777978727 | 7.78° C | 74% | 1012.6 hPa | 0 mm | 0.89 m/s, 241° | 0 W/m² | - |
| 1777978126 | 8.33° C | 66% | 1011.3 hPa | 0 mm | 0 m/s | 0 W/m² | - |
| 1777977525 | 8.89° C | 59% | 1011.6 hPa | 0 mm | 0 m/s | 0 W/m² | - |
| 1777976920 | 8.89° C | 59% | 1011.8 hPa | 0 mm | 0 m/s | 0 W/m² | - |
| 1777976318 | 9.44° C | 55% | 1012.3 hPa | 0 mm | 0.45 m/s, 215° | 0 W/m² | - |
| 1777975715 | 10° C | 51% | 1011.6 hPa | 0 mm | 0 m/s | 0 W/m² | - |
| 1777975113 | 10° C | 47% | 1011.1 hPa | 0 mm | 0 m/s | 0 W/m² | - |
| 1777974513 | 10° C | 47% | 1010.8 hPa | 0 mm | 0.45 m/s, 46° | 0 W/m² | - |
| 1777973911 | 10.56° C | 48% | 1011 hPa | 0 mm | 0 m/s | 0 W/m² | - |
| 1777973306 | 10.56° C | 47% | 1011 hPa | 0 mm | 0.45 m/s, 291° | 0 W/m² | - |
| 1777972701 | 10.56° C | 47% | 1010 hPa | 0 mm | 0.89 m/s, 34° | 0 W/m² | - |
| 1777972097 | 10.56° C | 49% | 1010.9 hPa | 0 mm | 0.45 m/s, 270° | 0 W/m² | - |
| 1777971492 | 10.56° C | 50% | 1011.3 hPa | 0 mm | 0.45 m/s, 248° | 0 W/m² | - |
| 1777970887 | 10.56° C | 50% | 1010.8 hPa | 0 mm | 0.45 m/s, 226° | 0 W/m² | - |
| 1777970282 | 10.56° C | 49% | 1010.1 hPa | 0 mm | 0.45 m/s, 259° | 0 W/m² | - |
| 1777969681 | 10.56° C | 48% | 1009.6 hPa | 0 mm | 0.45 m/s, 216° | 0 W/m² | - |
| 1777969081 | 10.56° C | 47% | 1010.2 hPa | 0 mm | 0.89 m/s, 281° | 0 W/m² | - |
| 1777968480 | 11.11° C | 46% | 1009.9 hPa | 0 mm | 0.45 m/s, 338° | 0 W/m² | - |
* Rain latest hour (hover to see other rain measurements)
** Current wind speed in m/s (hover to see current wind gust speed)